Accueil
METAR-TAF:

METAR-TAF

Aéroports :

Aéroport Konrad-Adenauer de Cologne/Bonn

Cologne, Allemagne

latitude: 50-52N, longitude: 007-10E, altitude: 91 m

Observation

Le bulletin a été fait il y a 16 minutes, à 16:50 UTC
Vent 3 kt de est
Température 9°C
Humidité 66%
Pression 1021 hPa
Visibilité 10 km ou plus
Quelques nuages à une hauteur de 4700 ft

METAR: EDDK 281650Z AUTO 10003KT 9999 FEW047 09/03 Q1021 NOSIG

Heure: 18:06 (17:06 UTC)

Prévision

Le bulletin a été fait il y a 6 heures et 6 minutes, à 11:00 UTC
Prévision valable du 28 à 12 UTC au 29 à 18 UTC
Vent 6 kt de sud/sud-est
Visibilité 10 km ou plus
Nuages fragmentés à une hauteur de 1500 ft
Evoluant progressivement
du 29 à 08 UTC au 29 à 11 UTC
Vent 11 kt de sud/sud-est

TAF: EDDK 281100Z 2812/2918 15006KT 9999 BKN015 BECMG 2908/2911 16011KT

Observations et prévisions météorologiques de plus de 4000 aéroports (messages METAR et TAF).

Les stations disponibles sont représentées par des disques jaunes et rouges sur la carte.

Passer la souris dessus pour voir le nom de la station.

Cliquer dessus pour voir les observations et prévisions météorologiques.

Pour changer de carte: cliquez sur les boutons verts avec une croix noire pour zoomer, sur le bouton vert avec un tiret pour effectuer un zoom arrière, ou sur les flèches vertes pour les cartes adjacentes.


METAR-TAF: